sensor_id;sensor_type;location;lat;lon;timestamp;P1;durP1;ratioP1;P2;durP2;ratioP2
8247;SDS011;4164;49.844;8.830;2023-04-08T00:02:19;5.00;;;4.50;;
8247;SDS011;4164;49.844;8.830;2023-04-08T00:04:45;4.83;;;4.23;;
8247;SDS011;4164;49.844;8.830;2023-04-08T00:07:10;6.60;;;4.37;;
8247;SDS011;4164;49.844;8.830;2023-04-08T00:09:36;4.80;;;4.37;;
8247;SDS011;4164;49.844;8.830;2023-04-08T00:12:02;5.57;;;4.60;;
8247;SDS011;4164;49.844;8.830;2023-04-08T00:14:28;4.90;;;4.37;;
8247;SDS011;4164;49.844;8.830;2023-04-08T00:16:54;5.23;;;4.73;;
8247;SDS011;4164;49.844;8.830;2023-04-08T00:19:19;5.30;;;4.37;;
8247;SDS011;4164;49.844;8.830;2023-04-08T00:21:45;5.97;;;4.60;;
8247;SDS011;4164;49.844;8.830;2023-04-08T00:24:11;5.40;;;4.60;;
8247;SDS011;4164;49.844;8.830;2023-04-08T00:26:37;5.77;;;5.10;;
8247;SDS011;4164;49.844;8.830;2023-04-08T00:29:02;5.73;;;4.87;;
8247;SDS011;4164;49.844;8.830;2023-04-08T00:31:28;5.83;;;4.97;;
8247;SDS011;4164;49.844;8.830;2023-04-08T00:33:53;5.67;;;5.03;;
8247;SDS011;4164;49.844;8.830;2023-04-08T00:36:19;7.70;;;5.77;;
8247;SDS011;4164;49.844;8.830;2023-04-08T00:38:45;5.33;;;4.80;;
8247;SDS011;4164;49.844;8.830;2023-04-08T00:41:11;5.90;;;5.07;;
8247;SDS011;4164;49.844;8.830;2023-04-08T00:43:37;6.07;;;5.40;;
8247;SDS011;4164;49.844;8.830;2023-04-08T00:46:02;7.87;;;5.87;;
8247;SDS011;4164;49.844;8.830;2023-04-08T00:48:29;8.33;;;6.97;;
8247;SDS011;4164;49.844;8.830;2023-04-08T00:50:55;6.87;;;5.83;;
8247;SDS011;4164;49.844;8.830;2023-04-08T00:53:21;7.03;;;5.87;;
8247;SDS011;4164;49.844;8.830;2023-04-08T00:55:46;6.63;;;5.67;;
8247;SDS011;4164;49.844;8.830;2023-04-08T00:58:12;7.30;;;5.93;;
8247;SDS011;4164;49.844;8.830;2023-04-08T01:00:39;7.53;;;5.63;;
8247;SDS011;4164;49.844;8.830;2023-04-08T01:03:17;6.97;;;5.97;;
8247;SDS011;4164;49.844;8.830;2023-04-08T01:05:59;5.63;;;5.03;;
8247;SDS011;4164;49.844;8.830;2023-04-08T01:08:34;5.87;;;5.27;;
8247;SDS011;4164;49.844;8.830;2023-04-08T01:11:05;7.47;;;5.63;;
8247;SDS011;4164;49.844;8.830;2023-04-08T01:13:36;6.03;;;5.43;;
8247;SDS011;4164;49.844;8.830;2023-04-08T01:16:07;7.63;;;6.10;;
8247;SDS011;4164;49.844;8.830;2023-04-08T01:18:34;8.90;;;6.40;;
8247;SDS011;4164;49.844;8.830;2023-04-08T01:21:01;7.83;;;5.80;;
8247;SDS011;4164;49.844;8.830;2023-04-08T01:26:19;7.90;;;5.83;;
8247;SDS011;4164;49.844;8.830;2023-04-08T01:28:48;7.03;;;5.47;;
8247;SDS011;4164;49.844;8.830;2023-04-08T01:31:16;7.47;;;5.73;;
8247;SDS011;4164;49.844;8.830;2023-04-08T01:33:43;10.00;;;6.83;;
8247;SDS011;4164;49.844;8.830;2023-04-08T01:36:10;9.47;;;6.60;;
8247;SDS011;4164;49.844;8.830;2023-04-08T01:38:37;8.27;;;6.13;;
8247;SDS011;4164;49.844;8.830;2023-04-08T01:41:03;7.03;;;5.33;;
8247;SDS011;4164;49.844;8.830;2023-04-08T01:43:30;7.70;;;5.67;;
8247;SDS011;4164;49.844;8.830;2023-04-08T01:45:59;6.43;;;4.80;;
8247;SDS011;4164;49.844;8.830;2023-04-08T01:48:25;5.73;;;4.97;;
8247;SDS011;4164;49.844;8.830;2023-04-08T01:50:52;4.97;;;4.47;;
8247;SDS011;4164;49.844;8.830;2023-04-08T01:53:20;6.40;;;4.80;;
8247;SDS011;4164;49.844;8.830;2023-04-08T01:55:46;6.10;;;5.33;;
8247;SDS011;4164;49.844;8.830;2023-04-08T01:58:17;10.07;;;7.97;;
8247;SDS011;4164;49.844;8.830;2023-04-08T02:00:45;13.30;;;9.83;;
8247;SDS011;4164;49.844;8.830;2023-04-08T02:03:11;12.73;;;10.10;;
8247;SDS011;4164;49.844;8.830;2023-04-08T02:05:38;12.00;;;8.60;;
8247;SDS011;4164;49.844;8.830;2023-04-08T02:08:03;12.13;;;9.20;;
8247;SDS011;4164;49.844;8.830;2023-04-08T02:10:29;8.97;;;6.20;;
8247;SDS011;4164;49.844;8.830;2023-04-08T02:12:55;6.83;;;6.03;;
8247;SDS011;4164;49.844;8.830;2023-04-08T02:15:21;6.30;;;4.97;;
8247;SDS011;4164;49.844;8.830;2023-04-08T02:17:59;7.33;;;6.07;;
8247;SDS011;4164;49.844;8.830;2023-04-08T02:23:05;6.53;;;5.10;;
8247;SDS011;4164;49.844;8.830;2023-04-08T02:25:36;5.10;;;4.50;;
8247;SDS011;4164;49.844;8.830;2023-04-08T02:28:03;7.80;;;5.10;;
8247;SDS011;4164;49.844;8.830;2023-04-08T02:30:33;6.40;;;4.83;;
8247;SDS011;4164;49.844;8.830;2023-04-08T02:33:02;7.40;;;5.00;;
8247;SDS011;4164;49.844;8.830;2023-04-08T02:35:29;5.67;;;5.10;;
8247;SDS011;4164;49.844;8.830;2023-04-08T02:37:55;5.40;;;4.90;;
8247;SDS011;4164;49.844;8.830;2023-04-08T02:40:31;6.10;;;5.50;;
8247;SDS011;4164;49.844;8.830;2023-04-08T02:42:58;6.43;;;5.20;;
8247;SDS011;4164;49.844;8.830;2023-04-08T02:45:26;6.60;;;5.33;;
8247;SDS011;4164;49.844;8.830;2023-04-08T02:47:56;5.93;;;5.07;;
8247;SDS011;4164;49.844;8.830;2023-04-08T02:50:23;5.60;;;5.03;;
8247;SDS011;4164;49.844;8.830;2023-04-08T02:52:49;6.87;;;5.27;;
8247;SDS011;4164;49.844;8.830;2023-04-08T02:55:15;7.63;;;5.60;;
8247;SDS011;4164;49.844;8.830;2023-04-08T02:57:41;9.97;;;6.63;;
8247;SDS011;4164;49.844;8.830;2023-04-08T03:00:07;8.43;;;6.53;;
8247;SDS011;4164;49.844;8.830;2023-04-08T03:02:33;8.03;;;6.47;;
8247;SDS011;4164;49.844;8.830;2023-04-08T03:04:59;8.23;;;6.07;;
8247;SDS011;4164;49.844;8.830;2023-04-08T03:07:25;8.83;;;7.00;;
8247;SDS011;4164;49.844;8.830;2023-04-08T03:09:50;8.60;;;6.70;;
8247;SDS011;4164;49.844;8.830;2023-04-08T03:12:16;8.00;;;6.60;;
8247;SDS011;4164;49.844;8.830;2023-04-08T03:14:41;8.17;;;6.37;;
8247;SDS011;4164;49.844;8.830;2023-04-08T03:17:07;7.67;;;6.47;;
8247;SDS011;4164;49.844;8.830;2023-04-08T03:19:32;7.90;;;6.30;;
8247;SDS011;4164;49.844;8.830;2023-04-08T03:21:58;8.57;;;6.73;;
8247;SDS011;4164;49.844;8.830;2023-04-08T03:24:24;10.30;;;7.87;;
8247;SDS011;4164;49.844;8.830;2023-04-08T03:26:49;11.93;;;7.17;;
8247;SDS011;4164;49.844;8.830;2023-04-08T03:29:15;10.77;;;7.67;;
8247;SDS011;4164;49.844;8.830;2023-04-08T03:31:40;9.13;;;7.60;;
8247;SDS011;4164;49.844;8.830;2023-04-08T03:34:06;8.83;;;6.60;;
8247;SDS011;4164;49.844;8.830;2023-04-08T03:36:31;9.30;;;7.27;;
8247;SDS011;4164;49.844;8.830;2023-04-08T03:38:57;9.77;;;7.10;;
8247;SDS011;4164;49.844;8.830;2023-04-08T03:41:22;9.40;;;7.97;;
8247;SDS011;4164;49.844;8.830;2023-04-08T03:43:48;11.13;;;8.53;;
8247;SDS011;4164;49.844;8.830;2023-04-08T03:46:14;12.93;;;9.70;;
8247;SDS011;4164;49.844;8.830;2023-04-08T03:48:39;11.33;;;8.67;;
8247;SDS011;4164;49.844;8.830;2023-04-08T03:51:05;12.53;;;9.43;;
8247;SDS011;4164;49.844;8.830;2023-04-08T03:53:30;13.00;;;9.50;;
8247;SDS011;4164;49.844;8.830;2023-04-08T03:55:56;14.23;;;10.20;;
8247;SDS011;4164;49.844;8.830;2023-04-08T03:58:22;15.10;;;10.67;;
8247;SDS011;4164;49.844;8.830;2023-04-08T04:00:47;13.70;;;10.63;;
8247;SDS011;4164;49.844;8.830;2023-04-08T04:03:13;14.03;;;9.93;;
8247;SDS011;4164;49.844;8.830;2023-04-08T04:05:38;12.53;;;9.90;;
8247;SDS011;4164;49.844;8.830;2023-04-08T04:08:04;14.57;;;10.10;;
8247;SDS011;4164;49.844;8.830;2023-04-08T04:10:30;16.13;;;10.20;;
8247;SDS011;4164;49.844;8.830;2023-04-08T04:12:55;15.47;;;10.37;;
8247;SDS011;4164;49.844;8.830;2023-04-08T04:15:21;14.90;;;11.03;;
8247;SDS011;4164;49.844;8.830;2023-04-08T04:17:47;15.77;;;11.20;;
8247;SDS011;4164;49.844;8.830;2023-04-08T04:20:14;14.50;;;11.50;;
8247;SDS011;4164;49.844;8.830;2023-04-08T04:22:39;15.57;;;10.93;;
8247;SDS011;4164;49.844;8.830;2023-04-08T04:25:05;14.50;;;10.97;;
8247;SDS011;4164;49.844;8.830;2023-04-08T04:27:31;16.33;;;11.67;;
8247;SDS011;4164;49.844;8.830;2023-04-08T04:29:57;17.50;;;12.13;;
8247;SDS011;4164;49.844;8.830;2023-04-08T04:32:24;17.07;;;11.60;;
8247;SDS011;4164;49.844;8.830;2023-04-08T04:34:50;15.97;;;11.27;;
8247;SDS011;4164;49.844;8.830;2023-04-08T04:37:15;15.47;;;11.20;;
8247;SDS011;4164;49.844;8.830;2023-04-08T04:39:41;16.67;;;11.70;;
8247;SDS011;4164;49.844;8.830;2023-04-08T04:42:07;17.90;;;12.33;;
8247;SDS011;4164;49.844;8.830;2023-04-08T04:44:32;16.70;;;12.07;;
8247;SDS011;4164;49.844;8.830;2023-04-08T04:46:58;15.70;;;11.67;;
8247;SDS011;4164;49.844;8.830;2023-04-08T04:49:23;15.80;;;11.90;;
8247;SDS011;4164;49.844;8.830;2023-04-08T04:51:49;19.77;;;11.53;;
8247;SDS011;4164;49.844;8.830;2023-04-08T04:54:15;14.67;;;11.63;;
8247;SDS011;4164;49.844;8.830;2023-04-08T04:56:40;18.77;;;12.90;;
8247;SDS011;4164;49.844;8.830;2023-04-08T04:59:06;16.57;;;12.30;;
8247;SDS011;4164;49.844;8.830;2023-04-08T05:01:32;15.97;;;11.33;;
8247;SDS011;4164;49.844;8.830;2023-04-08T05:03:58;17.40;;;12.33;;
8247;SDS011;4164;49.844;8.830;2023-04-08T05:06:23;17.57;;;11.83;;
8247;SDS011;4164;49.844;8.830;2023-04-08T05:08:50;18.07;;;11.17;;
8247;SDS011;4164;49.844;8.830;2023-04-08T05:11:16;14.70;;;10.90;;
8247;SDS011;4164;49.844;8.830;2023-04-08T05:13:42;16.03;;;11.00;;
8247;SDS011;4164;49.844;8.830;2023-04-08T05:16:08;16.73;;;12.40;;
8247;SDS011;4164;49.844;8.830;2023-04-08T05:18:34;19.03;;;12.73;;
8247;SDS011;4164;49.844;8.830;2023-04-08T05:21:00;20.03;;;13.53;;
8247;SDS011;4164;49.844;8.830;2023-04-08T05:23:26;16.50;;;11.93;;
8247;SDS011;4164;49.844;8.830;2023-04-08T05:25:52;18.03;;;11.17;;
8247;SDS011;4164;49.844;8.830;2023-04-08T05:28:17;15.73;;;11.77;;
8247;SDS011;4164;49.844;8.830;2023-04-08T05:30:47;15.60;;;11.57;;
8247;SDS011;4164;49.844;8.830;2023-04-08T05:33:14;14.73;;;10.77;;
8247;SDS011;4164;49.844;8.830;2023-04-08T05:35:40;15.70;;;11.33;;
8247;SDS011;4164;49.844;8.830;2023-04-08T05:38:06;16.27;;;10.90;;
8247;SDS011;4164;49.844;8.830;2023-04-08T05:40:31;17.23;;;11.40;;
8247;SDS011;4164;49.844;8.830;2023-04-08T05:42:57;17.60;;;11.77;;
8247;SDS011;4164;49.844;8.830;2023-04-08T05:45:22;15.40;;;11.00;;
8247;SDS011;4164;49.844;8.830;2023-04-08T05:47:48;15.97;;;11.50;;
8247;SDS011;4164;49.844;8.830;2023-04-08T05:50:13;15.23;;;11.83;;
8247;SDS011;4164;49.844;8.830;2023-04-08T05:52:42;20.97;;;11.17;;
8247;SDS011;4164;49.844;8.830;2023-04-08T05:55:09;15.63;;;11.97;;
8247;SDS011;4164;49.844;8.830;2023-04-08T05:57:35;15.77;;;11.27;;
8247;SDS011;4164;49.844;8.830;2023-04-08T06:00:00;14.13;;;10.43;;
8247;SDS011;4164;49.844;8.830;2023-04-08T06:02:26;16.70;;;10.83;;
8247;SDS011;4164;49.844;8.830;2023-04-08T06:04:52;16.87;;;11.17;;
8247;SDS011;4164;49.844;8.830;2023-04-08T06:07:17;16.67;;;12.20;;
8247;SDS011;4164;49.844;8.830;2023-04-08T06:09:43;24.50;;;16.50;;
8247;SDS011;4164;49.844;8.830;2023-04-08T06:12:08;19.93;;;14.60;;
8247;SDS011;4164;49.844;8.830;2023-04-08T06:14:34;20.67;;;13.97;;
8247;SDS011;4164;49.844;8.830;2023-04-08T06:16:59;14.80;;;11.20;;
8247;SDS011;4164;49.844;8.830;2023-04-08T06:19:25;17.37;;;12.53;;
8247;SDS011;4164;49.844;8.830;2023-04-08T06:21:51;17.87;;;13.13;;
8247;SDS011;4164;49.844;8.830;2023-04-08T06:24:16;18.60;;;13.00;;
8247;SDS011;4164;49.844;8.830;2023-04-08T06:26:42;14.00;;;10.37;;
8247;SDS011;4164;49.844;8.830;2023-04-08T06:29:07;13.67;;;10.43;;
8247;SDS011;4164;49.844;8.830;2023-04-08T06:31:33;13.17;;;9.80;;
8247;SDS011;4164;49.844;8.830;2023-04-08T06:33:58;11.50;;;9.13;;
8247;SDS011;4164;49.844;8.830;2023-04-08T06:36:24;14.07;;;9.93;;
8247;SDS011;4164;49.844;8.830;2023-04-08T06:38:50;13.30;;;8.63;;
8247;SDS011;4164;49.844;8.830;2023-04-08T06:41:15;14.03;;;9.17;;
8247;SDS011;4164;49.844;8.830;2023-04-08T06:43:41;11.20;;;9.23;;
8247;SDS011;4164;49.844;8.830;2023-04-08T06:46:06;11.83;;;9.43;;
8247;SDS011;4164;49.844;8.830;2023-04-08T06:48:32;13.07;;;9.70;;
8247;SDS011;4164;49.844;8.830;2023-04-08T06:50:59;11.53;;;8.87;;
8247;SDS011;4164;49.844;8.830;2023-04-08T06:53:25;14.57;;;9.83;;
8247;SDS011;4164;49.844;8.830;2023-04-08T06:55:53;13.37;;;8.53;;
8247;SDS011;4164;49.844;8.830;2023-04-08T06:58:19;12.67;;;8.60;;
8247;SDS011;4164;49.844;8.830;2023-04-08T07:00:44;10.97;;;8.30;;
8247;SDS011;4164;49.844;8.830;2023-04-08T07:03:10;12.97;;;8.53;;
8247;SDS011;4164;49.844;8.830;2023-04-08T07:05:35;11.03;;;8.73;;
8247;SDS011;4164;49.844;8.830;2023-04-08T07:08:02;10.83;;;7.90;;
8247;SDS011;4164;49.844;8.830;2023-04-08T07:10:28;11.30;;;8.30;;
8247;SDS011;4164;49.844;8.830;2023-04-08T07:12:54;12.10;;;8.60;;
8247;SDS011;4164;49.844;8.830;2023-04-08T07:15:20;10.83;;;8.43;;
8247;SDS011;4164;49.844;8.830;2023-04-08T07:17:46;11.20;;;8.63;;
8247;SDS011;4164;49.844;8.830;2023-04-08T07:20:12;10.80;;;8.43;;
8247;SDS011;4164;49.844;8.830;2023-04-08T07:22:38;10.07;;;8.20;;
8247;SDS011;4164;49.844;8.830;2023-04-08T07:25:04;9.90;;;7.77;;
8247;SDS011;4164;49.844;8.830;2023-04-08T07:27:30;9.37;;;7.87;;
8247;SDS011;4164;49.844;8.830;2023-04-08T07:29:57;10.37;;;8.40;;
8247;SDS011;4164;49.844;8.830;2023-04-08T07:32:23;10.10;;;8.17;;
8247;SDS011;4164;49.844;8.830;2023-04-08T07:34:48;10.93;;;8.13;;
8247;SDS011;4164;49.844;8.830;2023-04-08T07:37:14;11.90;;;8.53;;
8247;SDS011;4164;49.844;8.830;2023-04-08T07:39:40;9.00;;;7.73;;
8247;SDS011;4164;49.844;8.830;2023-04-08T07:42:05;12.67;;;8.30;;
8247;SDS011;4164;49.844;8.830;2023-04-08T07:44:31;9.37;;;7.23;;
8247;SDS011;4164;49.844;8.830;2023-04-08T07:46:56;10.20;;;8.43;;
8247;SDS011;4164;49.844;8.830;2023-04-08T07:49:22;9.83;;;7.80;;
8247;SDS011;4164;49.844;8.830;2023-04-08T07:51:47;12.57;;;8.30;;
8247;SDS011;4164;49.844;8.830;2023-04-08T07:54:13;10.97;;;7.83;;
8247;SDS011;4164;49.844;8.830;2023-04-08T07:56:42;9.70;;;7.83;;
8247;SDS011;4164;49.844;8.830;2023-04-08T07:59:09;10.43;;;7.63;;
8247;SDS011;4164;49.844;8.830;2023-04-08T08:01:35;8.90;;;7.63;;
8247;SDS011;4164;49.844;8.830;2023-04-08T08:04:00;10.30;;;8.20;;
8247;SDS011;4164;49.844;8.830;2023-04-08T08:06:27;12.03;;;8.30;;
8247;SDS011;4164;49.844;8.830;2023-04-08T08:08:53;9.20;;;7.50;;
8247;SDS011;4164;49.844;8.830;2023-04-08T08:11:18;9.13;;;7.70;;
8247;SDS011;4164;49.844;8.830;2023-04-08T08:13:45;10.13;;;8.00;;
8247;SDS011;4164;49.844;8.830;2023-04-08T08:16:10;11.10;;;8.00;;
8247;SDS011;4164;49.844;8.830;2023-04-08T08:18:36;9.23;;;7.50;;
8247;SDS011;4164;49.844;8.830;2023-04-08T08:21:03;11.50;;;8.17;;
8247;SDS011;4164;49.844;8.830;2023-04-08T08:23:29;10.53;;;8.03;;
8247;SDS011;4164;49.844;8.830;2023-04-08T08:25:58;11.47;;;8.27;;
8247;SDS011;4164;49.844;8.830;2023-04-08T08:28:36;8.47;;;6.87;;
8247;SDS011;4164;49.844;8.830;2023-04-08T08:31:02;9.93;;;7.43;;
8247;SDS011;4164;49.844;8.830;2023-04-08T08:33:29;10.20;;;8.10;;
8247;SDS011;4164;49.844;8.830;2023-04-08T08:35:55;12.40;;;7.57;;
8247;SDS011;4164;49.844;8.830;2023-04-08T08:38:22;8.83;;;7.63;;
8247;SDS011;4164;49.844;8.830;2023-04-08T08:40:52;8.80;;;7.17;;
8247;SDS011;4164;49.844;8.830;2023-04-08T08:43:22;9.50;;;7.57;;
8247;SDS011;4164;49.844;8.830;2023-04-08T08:45:48;10.50;;;7.73;;
8247;SDS011;4164;49.844;8.830;2023-04-08T08:48:13;12.30;;;9.00;;
8247;SDS011;4164;49.844;8.830;2023-04-08T08:50:39;8.97;;;7.50;;
8247;SDS011;4164;49.844;8.830;2023-04-08T08:53:05;11.47;;;8.90;;
8247;SDS011;4164;49.844;8.830;2023-04-08T08:55:31;10.10;;;7.27;;
8247;SDS011;4164;49.844;8.830;2023-04-08T08:58:00;9.87;;;7.40;;
8247;SDS011;4164;49.844;8.830;2023-04-08T09:00:30;12.03;;;7.67;;
8247;SDS011;4164;49.844;8.830;2023-04-08T09:03:09;12.23;;;7.83;;
8247;SDS011;4164;49.844;8.830;2023-04-08T09:05:48;10.67;;;7.33;;
8247;SDS011;4164;49.844;8.830;2023-04-08T09:08:31;9.70;;;7.37;;
8247;SDS011;4164;49.844;8.830;2023-04-08T09:11:14;9.77;;;7.50;;
8247;SDS011;4164;49.844;8.830;2023-04-08T09:13:41;10.50;;;7.80;;
8247;SDS011;4164;49.844;8.830;2023-04-08T09:16:08;8.37;;;7.43;;
8247;SDS011;4164;49.844;8.830;2023-04-08T09:18:40;12.47;;;7.87;;
8247;SDS011;4164;49.844;8.830;2023-04-08T09:21:08;13.53;;;7.63;;
8247;SDS011;4164;49.844;8.830;2023-04-08T09:23:38;10.10;;;7.70;;
8247;SDS011;4164;49.844;8.830;2023-04-08T09:26:16;8.63;;;7.33;;
8247;SDS011;4164;49.844;8.830;2023-04-08T09:28:56;11.47;;;7.90;;
8247;SDS011;4164;49.844;8.830;2023-04-08T09:31:23;8.80;;;7.23;;
8247;SDS011;4164;49.844;8.830;2023-04-08T09:33:52;8.77;;;7.27;;
8247;SDS011;4164;49.844;8.830;2023-04-08T09:36:19;13.53;;;7.87;;
8247;SDS011;4164;49.844;8.830;2023-04-08T09:38:45;10.20;;;7.60;;
8247;SDS011;4164;49.844;8.830;2023-04-08T09:41:12;20.03;;;12.80;;
8247;SDS011;4164;49.844;8.830;2023-04-08T09:43:44;14.40;;;7.90;;
8247;SDS011;4164;49.844;8.830;2023-04-08T09:46:16;21.17;;;14.47;;
8247;SDS011;4164;49.844;8.830;2023-04-08T09:48:52;11.13;;;9.77;;
8247;SDS011;4164;49.844;8.830;2023-04-08T09:51:22;8.80;;;7.07;;
8247;SDS011;4164;49.844;8.830;2023-04-08T09:53:53;11.93;;;10.13;;
8247;SDS011;4164;49.844;8.830;2023-04-08T09:56:23;10.63;;;7.77;;
8247;SDS011;4164;49.844;8.830;2023-04-08T09:58:58;10.70;;;7.83;;
8247;SDS011;4164;49.844;8.830;2023-04-08T10:01:27;9.73;;;7.63;;
8247;SDS011;4164;49.844;8.830;2023-04-08T10:04:00;9.90;;;7.83;;
8247;SDS011;4164;49.844;8.830;2023-04-08T10:06:33;12.70;;;8.43;;
8247;SDS011;4164;49.844;8.830;2023-04-08T10:08:59;12.23;;;8.87;;
8247;SDS011;4164;49.844;8.830;2023-04-08T10:11:26;12.03;;;8.27;;
8247;SDS011;4164;49.844;8.830;2023-04-08T10:13:52;9.37;;;7.07;;
8247;SDS011;4164;49.844;8.830;2023-04-08T10:16:19;8.57;;;7.67;;
8247;SDS011;4164;49.844;8.830;2023-04-08T10:18:46;11.70;;;6.73;;
8247;SDS011;4164;49.844;8.830;2023-04-08T10:21:30;11.43;;;7.20;;
8247;SDS011;4164;49.844;8.830;2023-04-08T10:23:57;8.00;;;6.80;;
8247;SDS011;4164;49.844;8.830;2023-04-08T10:26:32;8.83;;;7.20;;
8247;SDS011;4164;49.844;8.830;2023-04-08T10:29:49;7.83;;;6.67;;
8247;SDS011;4164;49.844;8.830;2023-04-08T10:31:50;9.47;;;7.23;;
8247;SDS011;4164;49.844;8.830;2023-04-08T10:34:19;8.73;;;6.80;;
8247;SDS011;4164;49.844;8.830;2023-04-08T10:36:47;8.90;;;6.73;;
8247;SDS011;4164;49.844;8.830;2023-04-08T10:39:13;8.63;;;7.07;;
8247;SDS011;4164;49.844;8.830;2023-04-08T10:41:41;6.83;;;6.13;;
8247;SDS011;4164;49.844;8.830;2023-04-08T10:44:16;9.77;;;6.90;;
8247;SDS011;4164;49.844;8.830;2023-04-08T10:46:46;7.30;;;6.40;;
8247;SDS011;4164;49.844;8.830;2023-04-08T10:49:13;8.07;;;6.63;;
8247;SDS011;4164;49.844;8.830;2023-04-08T10:51:39;8.83;;;6.07;;
8247;SDS011;4164;49.844;8.830;2023-04-08T10:54:06;6.63;;;5.93;;
8247;SDS011;4164;49.844;8.830;2023-04-08T10:56:33;6.20;;;5.37;;
8247;SDS011;4164;49.844;8.830;2023-04-08T10:59:00;7.70;;;5.90;;
8247;SDS011;4164;49.844;8.830;2023-04-08T11:01:25;7.87;;;6.10;;
8247;SDS011;4164;49.844;8.830;2023-04-08T11:03:51;7.10;;;5.27;;
8247;SDS011;4164;49.844;8.830;2023-04-08T11:06:17;9.73;;;5.50;;
8247;SDS011;4164;49.844;8.830;2023-04-08T11:08:43;8.77;;;6.00;;
8247;SDS011;4164;49.844;8.830;2023-04-08T11:11:09;7.33;;;5.30;;
8247;SDS011;4164;49.844;8.830;2023-04-08T11:13:39;7.83;;;5.00;;
8247;SDS011;4164;49.844;8.830;2023-04-08T11:16:06;7.13;;;5.90;;
8247;SDS011;4164;49.844;8.830;2023-04-08T11:18:38;6.80;;;5.63;;
8247;SDS011;4164;49.844;8.830;2023-04-08T11:21:08;8.80;;;6.00;;
8247;SDS011;4164;49.844;8.830;2023-04-08T11:23:35;7.10;;;5.47;;
8247;SDS011;4164;49.844;8.830;2023-04-08T11:26:01;6.87;;;4.93;;
8247;SDS011;4164;49.844;8.830;2023-04-08T11:28:27;10.17;;;5.37;;
8247;SDS011;4164;49.844;8.830;2023-04-08T11:30:53;9.10;;;6.00;;
8247;SDS011;4164;49.844;8.830;2023-04-08T11:33:19;8.20;;;5.57;;
8247;SDS011;4164;49.844;8.830;2023-04-08T11:35:49;8.57;;;5.40;;
8247;SDS011;4164;49.844;8.830;2023-04-08T11:38:15;8.57;;;5.40;;
8247;SDS011;4164;49.844;8.830;2023-04-08T11:40:50;8.00;;;6.00;;
8247;SDS011;4164;49.844;8.830;2023-04-08T11:43:18;8.97;;;5.97;;
8247;SDS011;4164;49.844;8.830;2023-04-08T11:45:44;10.27;;;7.10;;
8247;SDS011;4164;49.844;8.830;2023-04-08T11:48:10;12.80;;;7.00;;
8247;SDS011;4164;49.844;8.830;2023-04-08T11:50:36;33.17;;;19.73;;
8247;SDS011;4164;49.844;8.830;2023-04-08T11:53:02;13.87;;;8.57;;
8247;SDS011;4164;49.844;8.830;2023-04-08T11:55:31;13.37;;;7.90;;
8247;SDS011;4164;49.844;8.830;2023-04-08T11:58:03;21.87;;;10.17;;
8247;SDS011;4164;49.844;8.830;2023-04-08T12:00:30;31.53;;;20.57;;
8247;SDS011;4164;49.844;8.830;2023-04-08T12:02:57;10.27;;;8.03;;
8247;SDS011;4164;49.844;8.830;2023-04-08T12:05:22;7.43;;;6.30;;
8247;SDS011;4164;49.844;8.830;2023-04-08T12:07:48;6.73;;;5.80;;
8247;SDS011;4164;49.844;8.830;2023-04-08T12:10:13;9.30;;;6.13;;
8247;SDS011;4164;49.844;8.830;2023-04-08T12:12:39;8.57;;;5.63;;
8247;SDS011;4164;49.844;8.830;2023-04-08T12:15:05;6.23;;;5.40;;
8247;SDS011;4164;49.844;8.830;2023-04-08T12:17:32;10.97;;;6.70;;
8247;SDS011;4164;49.844;8.830;2023-04-08T12:19:58;6.20;;;5.60;;
8247;SDS011;4164;49.844;8.830;2023-04-08T12:22:24;6.47;;;5.53;;
8247;SDS011;4164;49.844;8.830;2023-04-08T12:24:49;7.27;;;6.00;;
8247;SDS011;4164;49.844;8.830;2023-04-08T12:27:15;6.37;;;5.70;;
8247;SDS011;4164;49.844;8.830;2023-04-08T12:29:40;6.53;;;5.50;;
8247;SDS011;4164;49.844;8.830;2023-04-08T12:32:07;7.73;;;6.00;;
8247;SDS011;4164;49.844;8.830;2023-04-08T12:34:33;5.20;;;4.70;;
8247;SDS011;4164;49.844;8.830;2023-04-08T12:36:58;6.17;;;5.40;;
8247;SDS011;4164;49.844;8.830;2023-04-08T12:39:24;6.23;;;5.63;;
8247;SDS011;4164;49.844;8.830;2023-04-08T12:41:49;7.80;;;5.43;;
8247;SDS011;4164;49.844;8.830;2023-04-08T12:44:15;5.50;;;5.00;;
8247;SDS011;4164;49.844;8.830;2023-04-08T12:46:41;9.00;;;5.83;;
8247;SDS011;4164;49.844;8.830;2023-04-08T12:49:06;8.87;;;5.53;;
8247;SDS011;4164;49.844;8.830;2023-04-08T12:51:33;6.33;;;5.53;;
8247;SDS011;4164;49.844;8.830;2023-04-08T12:53:59;8.13;;;5.23;;
8247;SDS011;4164;49.844;8.830;2023-04-08T12:56:27;5.20;;;4.70;;
8247;SDS011;4164;49.844;8.830;2023-04-08T12:58:53;4.93;;;4.47;;
8247;SDS011;4164;49.844;8.830;2023-04-08T13:01:19;6.87;;;4.97;;
8247;SDS011;4164;49.844;8.830;2023-04-08T13:03:45;5.37;;;4.87;;
8247;SDS011;4164;49.844;8.830;2023-04-08T13:06:11;5.47;;;4.40;;
8247;SDS011;4164;49.844;8.830;2023-04-08T13:08:37;7.33;;;5.40;;
8247;SDS011;4164;49.844;8.830;2023-04-08T13:11:03;5.37;;;4.87;;
8247;SDS011;4164;49.844;8.830;2023-04-08T13:13:28;6.73;;;5.73;;
8247;SDS011;4164;49.844;8.830;2023-04-08T13:15:54;7.03;;;5.50;;
8247;SDS011;4164;49.844;8.830;2023-04-08T13:18:20;7.00;;;5.80;;
8247;SDS011;4164;49.844;8.830;2023-04-08T13:20:46;5.67;;;5.07;;
8247;SDS011;4164;49.844;8.830;2023-04-08T13:23:11;6.63;;;5.70;;
8247;SDS011;4164;49.844;8.830;2023-04-08T13:25:39;7.03;;;5.43;;
8247;SDS011;4164;49.844;8.830;2023-04-08T13:28:04;5.77;;;5.17;;
8247;SDS011;4164;49.844;8.830;2023-04-08T13:30:30;5.90;;;4.83;;
8247;SDS011;4164;49.844;8.830;2023-04-08T13:32:55;6.90;;;5.70;;
8247;SDS011;4164;49.844;8.830;2023-04-08T13:35:24;4.63;;;4.23;;
8247;SDS011;4164;49.844;8.830;2023-04-08T13:37:50;5.90;;;4.77;;
8247;SDS011;4164;49.844;8.830;2023-04-08T13:40:16;5.20;;;4.63;;
8247;SDS011;4164;49.844;8.830;2023-04-08T13:42:42;5.13;;;4.40;;
8247;SDS011;4164;49.844;8.830;2023-04-08T13:45:07;8.70;;;5.07;;
8247;SDS011;4164;49.844;8.830;2023-04-08T13:47:33;5.73;;;4.47;;
8247;SDS011;4164;49.844;8.830;2023-04-08T13:49:59;5.13;;;4.40;;
8247;SDS011;4164;49.844;8.830;2023-04-08T13:52:25;4.97;;;4.13;;
8247;SDS011;4164;49.844;8.830;2023-04-08T13:54:51;4.80;;;4.27;;
8247;SDS011;4164;49.844;8.830;2023-04-08T13:57:16;6.47;;;4.70;;
8247;SDS011;4164;49.844;8.830;2023-04-08T13:59:42;6.97;;;5.47;;
8247;SDS011;4164;49.844;8.830;2023-04-08T14:02:08;7.63;;;6.03;;
8247;SDS011;4164;49.844;8.830;2023-04-08T14:04:33;7.70;;;6.00;;
8247;SDS011;4164;49.844;8.830;2023-04-08T14:06:59;7.53;;;5.67;;
8247;SDS011;4164;49.844;8.830;2023-04-08T14:09:24;6.87;;;5.83;;
8247;SDS011;4164;49.844;8.830;2023-04-08T14:11:50;7.33;;;5.80;;
8247;SDS011;4164;49.844;8.830;2023-04-08T14:14:16;9.33;;;7.00;;
8247;SDS011;4164;49.844;8.830;2023-04-08T14:16:41;8.07;;;6.53;;
8247;SDS011;4164;49.844;8.830;2023-04-08T14:19:07;8.27;;;6.17;;
8247;SDS011;4164;49.844;8.830;2023-04-08T14:21:33;7.73;;;6.23;;
8247;SDS011;4164;49.844;8.830;2023-04-08T14:23:58;7.73;;;6.20;;
8247;SDS011;4164;49.844;8.830;2023-04-08T14:26:24;8.97;;;6.40;;
8247;SDS011;4164;49.844;8.830;2023-04-08T14:28:50;9.53;;;6.70;;
8247;SDS011;4164;49.844;8.830;2023-04-08T14:31:15;9.83;;;6.93;;
8247;SDS011;4164;49.844;8.830;2023-04-08T14:33:41;8.80;;;6.40;;
8247;SDS011;4164;49.844;8.830;2023-04-08T14:36:07;7.97;;;6.53;;
8247;SDS011;4164;49.844;8.830;2023-04-08T14:38:33;9.70;;;6.43;;
8247;SDS011;4164;49.844;8.830;2023-04-08T14:40:59;10.73;;;7.30;;
8247;SDS011;4164;49.844;8.830;2023-04-08T14:43:25;9.13;;;6.60;;
8247;SDS011;4164;49.844;8.830;2023-04-08T14:45:51;8.53;;;6.57;;
8247;SDS011;4164;49.844;8.830;2023-04-08T14:48:16;10.27;;;7.17;;
8247;SDS011;4164;49.844;8.830;2023-04-08T14:50:43;9.53;;;7.03;;
8247;SDS011;4164;49.844;8.830;2023-04-08T14:53:09;7.90;;;6.43;;
8247;SDS011;4164;49.844;8.830;2023-04-08T14:55:35;7.53;;;6.57;;
8247;SDS011;4164;49.844;8.830;2023-04-08T14:58:00;9.80;;;6.40;;
8247;SDS011;4164;49.844;8.830;2023-04-08T15:00:26;7.00;;;5.70;;
8247;SDS011;4164;49.844;8.830;2023-04-08T15:02:51;9.00;;;6.60;;
8247;SDS011;4164;49.844;8.830;2023-04-08T15:05:17;9.37;;;6.60;;
8247;SDS011;4164;49.844;8.830;2023-04-08T15:07:42;7.63;;;5.77;;
8247;SDS011;4164;49.844;8.830;2023-04-08T15:10:08;8.27;;;6.33;;
8247;SDS011;4164;49.844;8.830;2023-04-08T15:12:34;9.53;;;6.30;;